createdAt,value
2023-12-29T00:01:30.867Z,4.74
2023-12-29T00:06:32.147Z,4.71
2023-12-29T00:11:33.675Z,4.61
2023-12-29T00:16:34.788Z,4.49
2023-12-29T00:21:36.762Z,4.38
2023-12-29T00:26:37.813Z,4.30
2023-12-29T00:31:38.959Z,4.25
2023-12-29T00:36:40.177Z,4.24
2023-12-29T00:41:41.463Z,4.18
2023-12-29T00:46:42.828Z,4.08
2023-12-29T00:51:44.235Z,4.00
2023-12-29T00:56:51.725Z,3.90
2023-12-29T01:01:53.019Z,3.87
2023-12-29T01:06:54.231Z,3.90
2023-12-29T01:11:55.522Z,3.97
2023-12-29T01:16:57.941Z,4.09
2023-12-29T01:21:59.498Z,4.17
2023-12-29T01:27:00.745Z,4.24
2023-12-29T01:32:02.003Z,4.27
2023-12-29T01:37:03.740Z,4.23
2023-12-29T01:42:04.967Z,4.19
2023-12-29T01:47:12.354Z,4.15
2023-12-29T01:52:13.692Z,4.11
2023-12-29T01:57:14.878Z,4.10
2023-12-29T02:02:15.971Z,4.11
2023-12-29T02:07:17.154Z,4.11
2023-12-29T02:12:18.569Z,4.10
2023-12-29T02:17:26.779Z,4.07
2023-12-29T02:22:28.070Z,4.05
2023-12-29T02:27:38.303Z,3.99
2023-12-29T02:32:41.996Z,3.92
2023-12-29T02:37:43.326Z,3.89
2023-12-29T02:42:50.506Z,3.92
2023-12-29T02:47:51.882Z,3.97
2023-12-29T02:52:53.353Z,4.05
2023-12-29T02:57:54.547Z,4.07
2023-12-29T03:02:55.896Z,4.04
2023-12-29T03:07:57.076Z,4.00
2023-12-29T03:12:58.357Z,3.95
2023-12-29T03:18:00.149Z,3.89
2023-12-29T03:23:01.442Z,3.83
2023-12-29T03:28:03.247Z,3.77
2023-12-29T03:33:06.993Z,3.74
2023-12-29T03:38:08.524Z,3.73
2023-12-29T03:43:09.994Z,3.75
2023-12-29T03:48:11.510Z,3.83
2023-12-29T03:53:12.751Z,3.94
2023-12-29T03:58:14.034Z,4.04
2023-12-29T04:03:15.287Z,4.08
2023-12-29T04:08:16.409Z,4.08
2023-12-29T04:13:17.563Z,4.01
2023-12-29T04:18:20.963Z,3.95
2023-12-29T04:23:22.361Z,3.89
2023-12-29T04:28:23.406Z,3.83
2023-12-29T04:33:24.687Z,3.75
2023-12-29T04:38:25.940Z,3.67
2023-12-29T04:43:26.965Z,3.56
2023-12-29T04:48:28.366Z,3.42
2023-12-29T04:53:29.647Z,3.30
2023-12-29T04:58:30.897Z,3.17
2023-12-29T05:03:32.261Z,3.07
2023-12-29T05:08:36.254Z,3.03
2023-12-29T05:13:37.579Z,3.08
2023-12-29T05:18:38.978Z,3.17
2023-12-29T05:23:41.687Z,3.26
2023-12-29T05:28:42.809Z,3.30
2023-12-29T05:33:44.866Z,3.27
2023-12-29T05:38:46.123Z,3.22
2023-12-29T05:43:47.391Z,3.15
2023-12-29T05:48:48.870Z,3.06
2023-12-29T05:53:50.331Z,3.00
2023-12-29T05:58:51.593Z,2.93
2023-12-29T06:03:52.735Z,2.89
2023-12-29T06:08:54.737Z,2.83
2023-12-29T06:13:56.006Z,2.79
2023-12-29T06:18:57.324Z,2.78
2023-12-29T06:23:58.460Z,2.83
2023-12-29T06:29:02.658Z,2.96
2023-12-29T06:34:03.873Z,3.10
2023-12-29T06:39:05.093Z,3.24
2023-12-29T06:44:06.249Z,3.33
2023-12-29T06:49:08.739Z,3.39
2023-12-29T06:54:10.080Z,3.44
2023-12-29T06:59:11.159Z,3.51
2023-12-29T07:04:12.532Z,3.58
2023-12-29T07:09:13.904Z,3.64
2023-12-29T07:14:15.168Z,3.72
2023-12-29T07:19:16.666Z,3.83
2023-12-29T07:24:17.828Z,3.96
2023-12-29T07:29:19.160Z,4.08
2023-12-29T07:34:21.314Z,4.24
2023-12-29T07:39:22.618Z,4.43
2023-12-29T07:44:23.770Z,4.69
2023-12-29T07:49:25.536Z,5.00
2023-12-29T07:54:26.913Z,5.30
2023-12-29T07:59:27.941Z,5.48
2023-12-29T08:04:29.179Z,5.64
2023-12-29T08:09:30.501Z,5.76
2023-12-29T08:14:31.783Z,5.85
2023-12-29T08:19:33.516Z,5.92
2023-12-29T08:24:35.022Z,6.02
2023-12-29T08:29:36.874Z,6.12
2023-12-29T08:34:38.080Z,6.19
2023-12-29T08:39:39.425Z,6.29
2023-12-29T08:44:40.971Z,6.35
2023-12-29T08:49:43.001Z,6.47
2023-12-29T08:54:44.477Z,6.62
2023-12-29T08:59:45.674Z,6.76
2023-12-29T09:04:46.736Z,6.90
2023-12-29T09:09:48.056Z,7.08
2023-12-29T09:14:50.308Z,7.27
2023-12-29T09:19:56.959Z,7.48
2023-12-29T09:25:01.878Z,7.73
2023-12-29T09:30:04.663Z,7.98
2023-12-29T09:35:06.006Z,8.64
2023-12-29T09:40:08.088Z,10.22
2023-12-29T09:45:11.630Z,11.27
2023-12-29T09:50:13.491Z,12.40
2023-12-29T09:55:15.695Z,13.18
2023-12-29T10:00:18.299Z,12.38
2023-12-29T10:05:19.503Z,11.75
2023-12-29T10:10:20.928Z,11.22
2023-12-29T10:15:32.458Z,10.82
2023-12-29T10:20:50.869Z,10.49
2023-12-29T10:25:52.063Z,10.28
2023-12-29T10:30:53.244Z,10.18
2023-12-29T10:36:00.354Z,10.08
2023-12-29T10:41:17.990Z,10.04
2023-12-29T10:46:19.478Z,10.00
2023-12-29T10:51:27.339Z,10.00
2023-12-29T10:56:28.481Z,10.02
2023-12-29T11:01:34.104Z,10.07
2023-12-29T11:06:42.726Z,10.09
2023-12-29T11:11:43.762Z,10.15
2023-12-29T11:16:44.927Z,10.25
2023-12-29T11:21:57.060Z,10.36
2023-12-29T11:26:58.399Z,10.47
2023-12-29T11:31:59.679Z,10.60
2023-12-29T11:37:11.408Z,10.69
2023-12-29T11:42:17.898Z,10.84
2023-12-29T11:47:35.283Z,11.02
2023-12-29T11:52:37.456Z,11.21
2023-12-29T11:57:39.622Z,11.34
2023-12-29T12:02:40.787Z,11.46
2023-12-29T12:07:42.237Z,11.54
2023-12-29T12:12:43.534Z,11.68
2023-12-29T12:17:45.323Z,11.84
2023-12-29T12:22:47.614Z,12.10
2023-12-29T12:27:48.835Z,12.28
2023-12-29T12:33:02.894Z,12.34
2023-12-29T12:38:22.444Z,12.49
2023-12-29T12:48:45.632Z,13.65
2023-12-29T12:53:47.228Z,14.85
2023-12-29T12:58:48.269Z,16.31
2023-12-29T13:03:50.333Z,16.79
2023-12-29T13:08:51.886Z,16.67
2023-12-29T13:13:52.819Z,17.36
2023-12-29T13:18:54.038Z,17.58
2023-12-29T13:23:55.207Z,16.48
2023-12-29T13:28:56.482Z,15.07
2023-12-29T13:34:00.067Z,14.02
2023-12-29T13:39:12.026Z,13.15
2023-12-29T13:44:13.210Z,12.43
2023-12-29T13:49:14.536Z,11.91
2023-12-29T13:54:16.013Z,11.46
2023-12-29T13:59:17.267Z,11.10
2023-12-29T14:04:18.545Z,10.78
2023-12-29T14:09:19.718Z,10.50
2023-12-29T14:14:24.538Z,10.23
2023-12-29T14:19:25.816Z,10.01
2023-12-29T14:24:27.042Z,9.79
2023-12-29T14:29:28.250Z,9.58
2023-12-29T14:34:29.403Z,9.39
2023-12-29T14:39:30.772Z,9.22
2023-12-29T14:44:32.049Z,9.04
2023-12-29T14:49:33.261Z,8.91
2023-12-29T14:54:34.657Z,8.83
2023-12-29T14:59:35.704Z,8.79
2023-12-29T15:04:36.944Z,8.74
2023-12-29T15:09:38.354Z,8.65
2023-12-29T15:14:39.517Z,8.49
2023-12-29T15:19:40.807Z,8.29
2023-12-29T15:24:42.019Z,8.07
2023-12-29T15:29:43.312Z,7.86
2023-12-29T15:34:44.464Z,7.66
2023-12-29T15:39:45.777Z,7.45
2023-12-29T15:44:47.609Z,7.26
2023-12-29T15:49:48.855Z,7.07
2023-12-29T15:54:49.986Z,6.91
2023-12-29T15:59:51.181Z,6.76
2023-12-29T16:04:52.499Z,6.63
2023-12-29T16:09:54.081Z,6.56
2023-12-29T16:14:55.224Z,6.52
2023-12-29T16:19:56.445Z,6.52
2023-12-29T16:24:57.606Z,6.51
2023-12-29T16:29:59.081Z,6.50
2023-12-29T16:35:00.461Z,6.46
2023-12-29T16:40:01.669Z,6.41
2023-12-29T16:45:03.484Z,6.32
2023-12-29T16:50:05.346Z,6.16
2023-12-29T16:55:07.049Z,6.03
2023-12-29T17:00:11.987Z,5.89
2023-12-29T17:05:13.600Z,5.76
2023-12-29T17:10:14.921Z,5.67
2023-12-29T17:15:16.209Z,5.56
2023-12-29T17:20:17.566Z,5.45
2023-12-29T17:25:19.111Z,5.40
2023-12-29T17:30:20.770Z,5.39
2023-12-29T17:35:22.176Z,5.41
2023-12-29T17:40:23.497Z,5.44
2023-12-29T17:45:24.689Z,5.46
2023-12-29T17:50:26.000Z,5.44
2023-12-29T17:55:27.201Z,5.38
2023-12-29T18:00:28.639Z,5.31
2023-12-29T18:05:30.086Z,5.23
2023-12-29T18:10:31.408Z,5.14
2023-12-29T18:15:32.805Z,5.08
2023-12-29T18:20:34.056Z,5.01
2023-12-29T18:25:35.320Z,4.97
2023-12-29T18:30:36.737Z,4.92
2023-12-29T18:35:38.050Z,4.88
2023-12-29T18:40:39.366Z,4.89
2023-12-29T18:45:40.852Z,4.91
2023-12-29T18:50:42.210Z,4.97
2023-12-29T18:55:43.724Z,5.03
2023-12-29T19:00:44.961Z,5.10
2023-12-29T19:05:46.251Z,5.08
2023-12-29T19:10:47.524Z,5.02
2023-12-29T19:15:48.961Z,4.96
2023-12-29T19:20:50.201Z,4.88
2023-12-29T19:25:51.536Z,4.77
2023-12-29T19:30:52.758Z,4.71
2023-12-29T19:35:54.038Z,4.63
2023-12-29T19:40:55.300Z,4.57
2023-12-29T19:45:59.577Z,4.51
2023-12-29T19:51:00.807Z,4.42
2023-12-29T19:56:02.170Z,4.42
2023-12-29T20:01:07.136Z,4.48
2023-12-29T20:06:08.764Z,4.59
2023-12-29T20:11:10.097Z,4.69
2023-12-29T20:16:21.190Z,4.78
2023-12-29T20:21:23.232Z,4.84
2023-12-29T20:26:26.101Z,4.85
2023-12-29T20:31:31.185Z,4.88
2023-12-29T20:36:32.881Z,4.99
2023-12-29T20:41:34.042Z,5.10
2023-12-29T20:46:35.301Z,5.14
2023-12-29T20:51:37.695Z,5.12
2023-12-29T20:56:38.825Z,5.05
2023-12-29T21:01:39.920Z,4.97
2023-12-29T21:06:41.482Z,5.01
2023-12-29T21:11:42.704Z,5.12
2023-12-29T21:16:44.092Z,5.31
2023-12-29T21:21:45.695Z,5.48
2023-12-29T21:26:47.023Z,5.61
2023-12-29T21:31:48.452Z,5.66
2023-12-29T21:36:49.747Z,5.62
2023-12-29T21:41:50.904Z,5.50
2023-12-29T21:46:52.281Z,5.35
2023-12-29T21:51:55.045Z,5.21
2023-12-29T21:56:56.194Z,5.07
2023-12-29T22:01:57.375Z,4.96
2023-12-29T22:06:58.828Z,4.83
2023-12-29T22:12:00.234Z,4.70
2023-12-29T22:17:01.512Z,4.65
2023-12-29T22:22:03.078Z,4.71
2023-12-29T22:27:04.674Z,4.82
2023-12-29T22:32:06.289Z,4.93
2023-12-29T22:37:07.422Z,4.98
2023-12-29T22:42:08.516Z,5.01
2023-12-29T22:47:10.410Z,5.04
2023-12-29T22:52:11.482Z,5.01
2023-12-29T22:57:12.716Z,4.92
2023-12-29T23:02:14.298Z,4.83
2023-12-29T23:07:15.702Z,4.74
2023-12-29T23:12:16.865Z,4.66
2023-12-29T23:17:17.917Z,4.57
2023-12-29T23:22:19.136Z,4.48
2023-12-29T23:27:20.538Z,4.41
2023-12-29T23:32:22.988Z,4.41
2023-12-29T23:37:23.940Z,4.44
2023-12-29T23:42:25.121Z,4.46
2023-12-29T23:47:26.270Z,4.52
2023-12-29T23:52:28.016Z,4.50
2023-12-29T23:57:29.258Z,4.47
